METAR Data
IDs: Format: Raw Decoded Include TAF

Data at: 1939 UTC 14 Dec 2018

KSSF 141853Z 32016G26KT 10SM OVC047 14/01 A3008 RMK AO2 PK WND 32028/1835 SLP185 T01390006 $
KSSF 141753Z 31016G26KT 10SM BKN044 13/M01 A3010 RMK AO2 PK WND 29026/1752 SLP192 T01331006 10144 20072 50004 $
KSSF 141653Z 31014G23KT 10SM BKN040 12/M01 A3011 RMK AO2 SLP197 T01221006 $
KSSF 141553Z 30012G17KT 10SM OVC038 10/M01 A3011 RMK AO2 SLP199 T01001011 $
KSSF 141453Z 33008G22KT 10SM OVC031 09/M01 A3008 RMK AO2 SLP189 T00891011 51019 $
KSSF 141353Z 32014G22KT 10SM BKN031 OVC043 08/M01 A3007 RMK AO2 SLP185 T00781011 $
KSSF 141253Z 30012G19KT 10SM BKN032 07/M02 A3004 RMK AO2 PK WND 31027/1155 SLP176 T00721017 $
KSSF 141153Z AUTO 33019G25KT 10SM SCT034 BKN090 08/M01 A3003 RMK AO2 PK WND 31028/1058 SLP169 T00781011 10106 20078 52015 $
KSSF 141053Z AUTO 31016G27KT 10SM FEW041 SCT049 08/M02 A3001 RMK AO2 PK WND 32027/1052 SLP162 T00831017 $
KSSF 140953Z AUTO 31018G28KT 10SM BKN043 09/M02 A3000 RMK AO2 PK WND 32028/0953 SLP158 T00891017 $
KSSF 140853Z AUTO 30013G19KT 10SM SCT100 09/M01 A2998 RMK AO2 SLP150 T00941011 53005 $
KSSF 140753Z AUTO 30011G21KT 10SM SCT044 BKN060 10/M01 A2997 RMK AO2 PK WND 29029/0713 SLP147 T01001006 $
KSSF 140653Z AUTO 31016G24KT 10SM OVC043 10/M01 A2997 RMK AO2 PK WND 32034/0625 SLP146 T01001006 $
KSSF 140553Z AUTO 31017G25KT 10SM OVC045 10/M01 A2997 RMK AO2 PK WND 29031/0536 SLP145 T01001006 10122 20100 402220100 50001 $
KSSF 140453Z AUTO 29016G28KT 10SM OVC043 10/M01 A2997 RMK AO2 PK WND 29029/0426 SLP148 T01001006 $
KSSF 140353Z AUTO 30017G27KT 10SM BKN044 OVC050 11/M01 A2996 RMK AO2 PK WND 29029/0305 SLP145 T01061006 $
KSSF 140253Z 30020G29KT 10SM BKN048 OVC065 11/00 A2996 RMK AO2 PK WND 29032/0210 SLP145 T01060000 51017 $
KSSF 140153Z 29013G21KT 10SM CLR 10/00 A2995 RMK AO2 PK WND 29031/0058 SLP142 T01000000 $
KSSF 140053Z 30013G27KT 10SM CLR 11/M01 A2994 RMK AO2 PK WND 29033/0023 SLP140 T01061006 $
KSSF 132353Z 29019G25KT 10SM OVC055 12/00 A2991 RMK AO2 PK WND 29035/2301 SLP128 T01220000 10222 20122 51050 $
KSSF 132253Z 29024G36KT 10SM BKN050 13/00 A2987 RMK AO2 PK WND 29038/2243 SLP113 T01330000 $
KSSF 132153Z 27028G36KT 10SM CLR 17/M01 A2982 RMK AO2 PK WND 28036/2148 PRESRR SLP093 T01721006 $
KSSF 132053Z 29022G32KT 10SM CLR 21/M06 A2976 RMK AO2 PK WND 29037/2000 SLP074 T02111056 57002
KSSF 131953Z 29019G29KT 10SM CLR 21/M04 A2976 RMK AO2 PK WND 28036/1933 SLP074 T02111039 $
KSSF 131853Z 29017G27KT 10SM CLR 22/00 A2976 RMK AO2 PK WND 28029/1826 SLP073 T02170000 $
KSSF 131753Z 30020G27KT 10SM CLR 21/04 A2977 RMK AO2 PK WND 29027/1753 SLP075 T02110044 10211 20111 58004
KSSF 131653Z 26010KT 10SM CLR 19/11 A2979 RMK AO2 SLP083 T01890111
KSSF 131553Z 24006KT 10SM CLR 16/12 A2979 RMK AO2 SLP084 T01560117 $
KSSF 131453Z 26008KT 6SM BR CLR 13/12 A2978 RMK AO2 SLP082 T01330122 53013
KSSF 131409Z 25006KT 4SM BR CLR 12/11 A2976 RMK AO2 T01220111 $
KSSF 131401Z 24005KT 2SM BR CLR 12/11 A2975 RMK AO2 T01220106 $
KSSF 131353Z 24004KT 3/4SM BR CLR 12/11 A2976 RMK AO2 SLP076 T01170106 $
KSSF 131331Z 27004KT 1 1/4SM BR FEW005 11/10 A2976 RMK AO2 T01110100 $
KSSF 131329Z 27004KT 3/4SM BR VV005 11/10 A2975 RMK AO2 T01110100 $
KSSF 131320Z 26004KT 3/4SM BR VV004 12/11 A2975 RMK AO2 T01170106 $
KSSF 131310Z 27003KT 1 3/4SM BR BKN002 12/10 A2974 RMK AO2 T01170100 $
KSSF 131253Z 26003KT 1/2SM FG VV002 11/10 A2974 RMK AO2 SLP069 T01110100 $
KSSF 131153Z AUTO 00000KT 1/4SM FG VV002 12/11 A2972 RMK AO2 SLP064 T01220111 10150 20122 55005 $
KSSF 131053Z AUTO 26003KT 1/4SM FG VV002 13/12 A2972 RMK AO2 SLP062 T01280117 $
KSSF 130953Z AUTO 26004KT 1/4SM FG VV002 13/12 A2974 RMK AO2 SLP066 T01330122 $
KSSF 130920Z AUTO 29003KT 1/4SM FG VV002 13/12 A2974 RMK AO2 T01330122 $
KSSF 130911Z AUTO 27003KT 1 1/2SM BR OVC001 13/12 A2974 RMK AO2 T01330122 $
KSSF 130853Z AUTO 00000KT 4SM BR BKN002 12/11 A2974 RMK AO2 SLP068 T01220111 55014 $
KSSF 130851Z AUTO 00000KT 4SM BR BKN002 12/11 A2974 RMK AO2 $
KSSF 130839Z AUTO 00000KT 2SM BR BKN002 13/12 A2974 RMK AO2 T01330122 $
KSSF 130834Z AUTO 00000KT 2SM BR SCT002 13/12 A2974 RMK AO2 VIS 1V5 T01330122 $
KSSF 130829Z AUTO 00000KT 1 3/4SM BR CLR 13/12 A2974 RMK AO2 VIS 1 1/4V5 T01280117 $
KSSF 130753Z AUTO 00000KT 7SM CLR 13/12 A2977 RMK AO2 SLP076 T01330117 $